Time;durP1;ratioP1;P1;durP2;ratioP2;P2;SDS_P1;SDS_P2;PMS_P1;PMS_P2;Temp;Humidity;BMP_temperature;BMP_pressure;BME280_temperature;BME280_humidity;BME280_pressure;Samples;Min_cycle;Max_cycle;Signal;HPM_P1;HPM_P2
2021/10/31 00:01:32;;;;;;;5.10;3.72;;;;;17.40;100401.00;;;;5076573;28;20199;-79
2021/10/31 00:04:00;;;;;;;5.30;4.47;;;;;17.40;100400.00;;;;5069493;28;20210;-79
2021/10/31 00:06:27;;;;;;;5.35;4.72;;;;;17.40;100404.00;;;;5067553;28;20665;-79
2021/10/31 00:08:54;;;;;;;4.38;3.95;;;;;17.30;100400.00;;;;5082838;28;20214;-79
2021/10/31 00:11:21;;;;;;;5.25;4.57;;;;;17.30;100404.00;;;;5088657;28;20186;-79
2021/10/31 00:13:49;;;;;;;5.60;5.03;;;;;17.30;100404.00;;;;5071346;28;20273;-79
2021/10/31 00:16:16;;;;;;;6.18;4.55;;;;;17.30;100411.00;;;;5067768;28;20199;-80
2021/10/31 00:18:45;;;;;;;6.40;5.43;;;;;17.30;100406.00;;;;5068391;28;20199;-80
2021/10/31 00:21:12;;;;;;;6.75;4.85;;;;;17.30;100416.00;;;;5067766;28;20207;-79
2021/10/31 00:23:39;;;;;;;5.03;4.15;;;;;17.30;100411.00;;;;5067884;28;20191;-80
2021/10/31 00:26:06;;;;;;;6.88;4.63;;;;;17.20;100410.00;;;;5068560;28;20645;-79
2021/10/31 00:28:34;;;;;;;5.65;5.03;;;;;17.30;100407.00;;;;5068922;28;20230;-79
2021/10/31 00:31:01;;;;;;;6.20;4.57;;;;;17.20;100401.00;;;;5076120;28;20255;-79
2021/10/31 00:33:28;;;;;;;5.30;4.50;;;;;17.20;100411.00;;;;5068216;28;20230;-80
2021/10/31 00:35:57;;;;;;;7.03;5.28;;;;;17.20;100405.00;;;;5067228;28;20198;-79
2021/10/31 00:38:24;;;;;;;5.80;4.50;;;;;17.20;100405.00;;;;5068782;28;20203;-80
2021/10/31 00:40:52;;;;;;;7.28;4.78;;;;;17.20;100408.00;;;;5067991;28;20599;-79
2021/10/31 00:43:19;;;;;;;4.63;3.95;;;;;17.20;100406.00;;;;5067921;28;20643;-80
2021/10/31 00:45:46;;;;;;;5.38;4.88;;;;;17.20;100406.00;;;;5072002;28;20202;-79
2021/10/31 00:48:14;;;;;;;4.00;3.50;;;;;17.20;100412.00;;;;5082236;28;20195;-79
2021/10/31 00:50:42;;;;;;;4.97;4.25;;;;;17.20;100406.00;;;;5067360;28;20195;-79
2021/10/31 00:53:11;;;;;;;6.97;4.13;;;;;17.20;100412.00;;;;5067602;28;20700;-79
2021/10/31 00:55:40;;;;;;;5.75;4.00;;;;;17.20;100421.00;;;;5068270;28;20207;-79
2021/10/31 00:58:10;;;;;;;6.50;4.40;;;;;17.10;100421.00;;;;5067395;28;20206;-80
2021/10/31 01:00:38;;;;;;;4.80;4.28;;;;;17.20;100432.00;;;;5068120;28;20618;-80
2021/10/31 01:03:05;;;;;;;7.05;4.22;;;;;17.20;100432.00;;;;5087625;28;20198;-80
2021/10/31 01:05:39;;;;;;;6.40;4.25;;;;;17.10;100434.00;;;;5083204;28;20209;-80
2021/10/31 01:08:17;;;;;;;9.45;4.63;;;;;17.10;100436.00;;;;5067601;28;20202;-80
2021/10/31 01:11:19;;;;;;;5.28;3.45;;;;;17.00;100435.00;;;;5086503;28;20202;-79
2021/10/31 01:14:02;;;;;;;4.57;3.53;;;;;17.00;100439.00;;;;5081592;28;20252;-79
2021/10/31 01:16:42;;;;;;;6.28;4.18;;;;;17.00;100435.00;;;;5081354;28;20187;-79
2021/10/31 01:19:29;;;;;;;3.85;3.30;;;;;17.00;100435.00;;;;5071628;28;20194;-80
2021/10/31 01:22:04;;;;;;;7.15;3.90;;;;;17.10;100437.00;;;;5070584;28;20195;-80
2021/10/31 01:25:07;;;;;;;5.72;3.97;;;;;16.90;100443.00;;;;5070473;28;20734;-80
2021/10/31 01:27:43;;;;;;;4.82;3.45;;;;;17.00;100440.00;;;;5063509;28;20229;-79
2021/10/31 01:30:17;;;;;;;4.57;3.75;;;;;17.00;100446.00;;;;5071204;28;20615;-80
2021/10/31 01:33:02;;;;;;;4.47;3.65;;;;;16.90;100445.00;;;;5071602;28;20199;-80
2021/10/31 01:35:48;;;;;;;4.43;3.92;;;;;16.90;100448.00;;;;5071247;28;20187;-80
2021/10/31 01:38:29;;;;;;;3.35;3.05;;;;;16.90;100451.00;;;;5070343;28;20202;-80
2021/10/31 01:41:04;;;;;;;6.10;3.45;;;;;16.90;100439.00;;;;5071484;28;20225;-80
2021/10/31 01:43:37;;;;;;;4.47;3.95;;;;;16.90;100439.00;;;;5071012;28;20293;-79
2021/10/31 01:46:12;;;;;;;5.00;3.75;;;;;16.80;100440.00;;;;5070757;28;20198;-79
2021/10/31 01:48:50;;;;;;;5.15;3.72;;;;;16.80;100434.00;;;;5078765;28;20189;-80
2021/10/31 01:51:21;;;;;;;5.82;3.55;;;;;16.80;100437.00;;;;5092106;28;20186;-79
2021/10/31 01:53:53;;;;;;;4.65;3.35;;;;;16.80;100434.00;;;;5079319;28;20222;-80
2021/10/31 01:56:24;;;;;;;4.85;3.60;;;;;16.80;100436.00;;;;5071600;28;20201;-80
2021/10/31 01:58:57;;;;;;;5.15;3.72;;;;;16.80;100434.00;;;;5071121;28;20260;-79
2021/10/31 02:01:28;;;;;;;4.72;3.35;;;;;16.70;100433.00;;;;5071533;28;20203;-80
2021/10/31 02:03:58;;;;;;;4.03;3.17;;;;;16.80;100436.00;;;;5073730;28;20203;-79
2021/10/31 02:06:27;;;;;;;3.45;3.03;;;;;16.70;100427.00;;;;5077583;28;20284;-80
2021/10/31 02:08:56;;;;;;;4.30;3.15;;;;;16.70;100437.00;;;;5071733;28;20214;-80
2021/10/31 02:11:26;;;;;;;5.35;3.67;;;;;16.70;100430.00;;;;5071433;28;20195;-80
2021/10/31 02:13:55;;;;;;;6.47;3.30;;;;;16.70;100436.00;;;;5070768;28;20226;-80
2021/10/31 02:16:23;;;;;;;5.03;3.63;;;;;16.70;100438.00;;;;5084163;28;20194;-80
2021/10/31 02:18:56;;;;;;;5.10;3.22;;;;;16.70;100427.00;;;;5085445;28;20192;-80
2021/10/31 02:21:27;;;;;;;3.28;2.78;;;;;16.70;100430.00;;;;5079401;28;20207;-80
2021/10/31 02:23:58;;;;;;;3.65;3.28;;;;;16.70;100439.00;;;;5072582;28;20206;-80
2021/10/31 02:26:25;;;;;;;4.03;3.50;;;;;16.70;100438.00;;;;5071774;28;20199;-80
2021/10/31 02:28:56;;;;;;;4.38;3.03;;;;;16.60;100439.00;;;;5069479;28;20612;-80
2021/10/31 02:31:24;;;;;;;4.47;3.13;;;;;16.60;100433.00;;;;5088220;28;20194;-80
2021/10/31 02:33:51;;;;;;;4.43;3.60;;;;;16.60;100438.00;;;;5091067;28;20218;-80
2021/10/31 02:36:19;;;;;;;5.38;3.08;;;;;16.60;100437.00;;;;5086810;28;20198;-80
2021/10/31 02:38:46;;;;;;;3.83;2.75;;;;;16.60;100439.00;;;;5082894;28;20284;-80
2021/10/31 02:41:14;;;;;;;6.72;3.33;;;;;16.60;100444.00;;;;5090409;28;20623;-79
2021/10/31 02:43:42;;;;;;;3.35;2.60;;;;;16.60;100433.00;;;;5078758;28;20207;-79
2021/10/31 02:46:09;;;;;;;4.57;3.30;;;;;16.60;100449.00;;;;5070538;28;20198;-79
2021/10/31 02:48:39;;;;;;;3.75;2.67;;;;;16.60;100448.00;;;;5077268;28;20580;-80
2021/10/31 02:51:15;;;;;;;3.83;2.90;;;;;16.50;100441.00;;;;5090337;28;20202;-80
2021/10/31 02:53:48;;;;;;;3.65;2.42;;;;;16.50;100440.00;;;;5078943;28;20221;-79
2021/10/31 02:56:25;;;;;;;3.80;3.00;;;;;16.50;100443.00;;;;5070942;28;21250;-80
2021/10/31 02:58:57;;;;;;;3.15;2.80;;;;;16.50;100444.00;;;;5069985;28;20240;-80
2021/10/31 03:01:29;;;;;;;3.88;2.78;;;;;16.50;100432.00;;;;5070212;28;20195;-80
2021/10/31 03:03:57;;;;;;;3.35;2.50;;;;;16.50;100428.00;;;;5070017;28;20191;-79
2021/10/31 03:06:25;;;;;;;2.75;2.25;;;;;16.50;100426.00;;;;5071454;28;20199;-80
2021/10/31 03:08:53;;;;;;;3.38;2.70;;;;;16.50;100425.00;;;;5078404;28;20233;-80
2021/10/31 03:11:21;;;;;;;5.50;2.63;;;;;16.50;100418.00;;;;5086720;28;20206;-79
2021/10/31 03:13:49;;;;;;;5.13;3.00;;;;;16.50;100415.00;;;;5077750;28;20209;-79
2021/10/31 03:16:16;;;;;;;3.70;3.13;;;;;16.50;100407.00;;;;5088960;28;20586;-79
2021/10/31 03:18:43;;;;;;;3.13;2.75;;;;;16.50;100410.00;;;;5070019;28;20198;-80
2021/10/31 03:21:10;;;;;;;3.95;2.85;;;;;16.50;100407.00;;;;5069704;28;20198;-80
2021/10/31 03:23:39;;;;;;;3.20;2.42;;;;;16.50;100415.00;;;;5070906;28;20218;-80
2021/10/31 03:26:06;;;;;;;5.78;2.72;;;;;16.50;100407.00;;;;5071378;28;20199;-80
2021/10/31 03:28:35;;;;;;;5.95;3.10;;;;;16.50;100408.00;;;;5086271;28;20312;-80
2021/10/31 03:31:02;;;;;;;5.95;3.13;;;;;16.50;100412.00;;;;5084779;28;20752;-80
2021/10/31 03:33:30;;;;;;;11.27;2.58;;;;;16.50;100414.00;;;;5069060;28;20203;-79
2021/10/31 03:35:57;;;;;;;4.40;2.75;;;;;16.50;100419.00;;;;5068840;28;20227;-80
2021/10/31 03:38:25;;;;;;;2.85;2.25;;;;;16.50;100423.00;;;;5069022;28;20217;-79
2021/10/31 03:40:52;;;;;;;7.22;3.17;;;;;16.50;100428.00;;;;5069435;28;20214;-79
2021/10/31 03:43:21;;;;;;;3.13;2.70;;;;;16.50;100426.00;;;;5069560;28;20202;-80
2021/10/31 03:45:51;;;;;;;4.05;3.10;;;;;16.50;100423.00;;;;5068386;28;20678;-80
2021/10/31 03:48:18;;;;;;;5.82;2.63;;;;;16.50;100420.00;;;;5068957;28;20191;-80
2021/10/31 03:50:45;;;;;;;4.20;3.00;;;;;16.50;100420.00;;;;5069234;28;20191;-80
2021/10/31 03:53:13;;;;;;;3.65;2.92;;;;;16.50;100418.00;;;;5068966;28;20245;-79
2021/10/31 03:55:40;;;;;;;4.40;3.38;;;;;16.50;100423.00;;;;5069585;28;20231;-79
2021/10/31 03:58:07;;;;;;;4.28;3.38;;;;;16.50;100426.00;;;;5068367;28;20183;-80
2021/10/31 04:00:35;;;;;;;4.10;3.13;;;;;16.50;100421.00;;;;5069127;28;20206;-78
2021/10/31 04:03:04;;;;;;;3.28;2.67;;;;;16.50;100413.00;;;;5073859;28;20194;-80
2021/10/31 04:05:31;;;;;;;4.25;3.00;;;;;16.50;100415.00;;;;5068657;28;20222;-80
2021/10/31 04:07:58;;;;;;;5.18;3.28;;;;;16.50;100412.00;;;;5080132;28;20918;-80
2021/10/31 04:10:25;;;;;;;3.72;2.53;;;;;16.50;100402.00;;;;5069298;28;20191;-79
2021/10/31 04:12:53;;;;;;;4.15;3.10;;;;;16.50;100402.00;;;;5069347;28;20199;-80
2021/10/31 04:15:21;;;;;;;3.65;2.75;;;;;16.50;100402.00;;;;5068870;28;20238;-80
2021/10/31 04:17:48;;;;;;;4.03;2.33;;;;;16.50;100404.00;;;;5068652;28;20195;-80
2021/10/31 04:20:17;;;;;;;3.20;2.53;;;;;16.50;100404.00;;;;5079025;28;20209;-80
2021/10/31 04:22:46;;;;;;;5.22;3.15;;;;;16.50;100407.00;;;;5083459;28;20209;-80
2021/10/31 04:25:13;;;;;;;3.95;3.03;;;;;16.50;100410.00;;;;5069009;28;20562;-80
2021/10/31 04:27:41;;;;;;;3.58;2.45;;;;;16.50;100404.00;;;;5068672;28;20235;-80
2021/10/31 04:30:09;;;;;;;3.92;2.83;;;;;16.50;100412.00;;;;5068405;28;20684;-80
2021/10/31 04:32:36;;;;;;;6.03;2.85;;;;;16.50;100414.00;;;;5072313;28;20199;-79
2021/10/31 04:35:04;;;;;;;3.35;3.05;;;;;16.50;100403.00;;;;5071620;28;20230;-80
2021/10/31 04:37:35;;;;;;;3.70;2.75;;;;;16.40;100402.00;;;;5069790;28;20229;-80
2021/10/31 04:40:04;;;;;;;2.90;2.45;;;;;16.50;100401.00;;;;5068206;28;20199;-79
2021/10/31 04:42:32;;;;;;;6.40;2.25;;;;;16.40;100402.00;;;;5068458;28;20206;-79
2021/10/31 04:44:59;;;;;;;5.43;2.75;;;;;16.40;100404.00;;;;5068640;28;20234;-80
2021/10/31 04:47:27;;;;;;;3.60;3.13;;;;;16.40;100405.00;;;;5077298;28;20202;-80
2021/10/31 04:49:54;;;;;;;4.97;2.38;;;;;16.40;100406.00;;;;5075950;28;20198;-80
2021/10/31 04:52:22;;;;;;;4.68;2.22;;;;;16.40;100399.00;;;;5068179;28;20202;-80
2021/10/31 04:54:50;;;;;;;3.28;2.58;;;;;16.40;100397.00;;;;5083476;28;20253;-79
2021/10/31 04:57:18;;;;;;;3.83;2.83;;;;;16.40;100391.00;;;;5080796;28;20240;-80
2021/10/31 04:59:45;;;;;;;4.30;3.30;;;;;16.30;100397.00;;;;5068727;28;20207;-80
2021/10/31 05:02:12;;;;;;;4.35;2.95;;;;;16.30;100396.00;;;;5067704;28;20209;-79
2021/10/31 05:04:39;;;;;;;4.85;3.92;;;;;16.30;100390.00;;;;5068394;28;20195;-79
2021/10/31 05:07:06;;;;;;;3.40;2.70;;;;;16.30;100389.00;;;;5068603;28;20198;-80
2021/10/31 05:09:34;;;;;;;4.15;2.88;;;;;16.30;100384.00;;;;5068879;28;20260;-80
2021/10/31 05:12:02;;;;;;;4.05;2.47;;;;;16.20;100381.00;;;;5085144;28;20202;-79
2021/10/31 05:14:30;;;;;;;3.35;2.92;;;;;16.20;100378.00;;;;5088753;28;20221;-79
2021/10/31 05:16:57;;;;;;;4.20;2.92;;;;;16.20;100379.00;;;;5077599;28;20741;-79
2021/10/31 05:19:25;;;;;;;2.83;2.40;;;;;16.20;100379.00;;;;5076451;28;20222;-80
2021/10/31 05:21:52;;;;;;;4.72;3.17;;;;;16.20;100378.00;;;;5072775;28;20191;-80
2021/10/31 05:24:19;;;;;;;4.47;3.05;;;;;16.20;100371.00;;;;5068246;28;20214;-80
2021/10/31 05:26:46;;;;;;;5.90;3.55;;;;;16.20;100374.00;;;;5067946;28;20207;-79
2021/10/31 05:29:15;;;;;;;5.13;2.72;;;;;16.10;100370.00;;;;5071314;28;20203;-80
2021/10/31 05:31:42;;;;;;;4.90;3.30;;;;;16.20;100377.00;;;;5071408;28;20583;-80
2021/10/31 05:34:11;;;;;;;4.72;3.75;;;;;16.10;100370.00;;;;5068976;28;20649;-80
2021/10/31 05:36:38;;;;;;;3.80;3.20;;;;;16.10;100366.00;;;;5073018;28;20222;-80
2021/10/31 05:39:06;;;;;;;10.25;3.80;;;;;16.10;100363.00;;;;5072353;28;20706;-80
2021/10/31 05:41:33;;;;;;;4.47;3.30;;;;;16.10;100353.00;;;;5072318;28;20633;-80
2021/10/31 05:44:00;;;;;;;6.63;3.75;;;;;16.10;100351.00;;;;5066865;28;20195;-80
2021/10/31 05:46:31;;;;;;;4.18;3.17;;;;;16.00;100356.00;;;;5065935;28;20210;-80
2021/10/31 05:48:59;;;;;;;4.95;3.60;;;;;16.10;100352.00;;;;5068828;28;20781;-80
2021/10/31 05:51:28;;;;;;;5.28;3.38;;;;;16.00;100354.00;;;;5066934;28;20772;-79
2021/10/31 05:53:56;;;;;;;4.00;3.22;;;;;16.00;100348.00;;;;5074689;28;20195;-79
2021/10/31 05:56:23;;;;;;;5.35;4.07;;;;;16.00;100354.00;;;;5067585;28;20221;-80
2021/10/31 05:58:50;;;;;;;4.95;3.08;;;;;16.00;100345.00;;;;5072279;28;20715;-80
2021/10/31 06:01:18;;;;;;;6.03;3.92;;;;;16.00;100353.00;;;;5084081;28;20203;-80
2021/10/31 06:03:46;;;;;;;4.53;3.83;;;;;16.00;100355.00;;;;5085522;28;20199;-79
2021/10/31 06:06:14;;;;;;;4.07;3.22;;;;;16.00;100344.00;;;;5089010;28;20236;-79
2021/10/31 06:08:41;;;;;;;3.92;3.30;;;;;16.00;100339.00;;;;5083075;28;20214;-79
2021/10/31 06:11:08;;;;;;;4.03;3.42;;;;;16.00;100335.00;;;;5078087;28;20195;-79
2021/10/31 06:13:36;;;;;;;5.55;4.10;;;;;15.90;100339.00;;;;5073829;28;20290;-79
2021/10/31 06:16:05;;;;;;;5.80;3.60;;;;;15.90;100320.00;;;;5073884;28;20226;-79
2021/10/31 06:18:33;;;;;;;5.22;4.00;;;;;15.90;100310.00;;;;5086379;28;20199;-79
2021/10/31 06:21:01;;;;;;;4.50;3.80;;;;;15.90;100307.00;;;;5083836;28;20202;-79
2021/10/31 06:23:29;;;;;;;3.95;3.40;;;;;15.90;100310.00;;;;5071343;28;20649;-79
2021/10/31 06:25:56;;;;;;;6.25;3.70;;;;;15.90;100304.00;;;;5072972;28;20206;-79
2021/10/31 06:28:23;;;;;;;5.03;3.53;;;;;15.90;100293.00;;;;5070168;28;20227;-79
2021/10/31 06:30:50;;;;;;;4.55;3.58;;;;;15.90;100299.00;;;;5078173;28;20234;-79
2021/10/31 06:33:18;;;;;;;4.97;3.75;;;;;15.90;100299.00;;;;5079216;28;20210;-79
2021/10/31 06:35:45;;;;;;;3.72;3.28;;;;;15.90;100309.00;;;;5077599;28;20317;-79
2021/10/31 06:38:15;;;;;;;4.85;3.55;;;;;15.80;100311.00;;;;5077682;28;20672;-79
2021/10/31 06:40:42;;;;;;;3.97;3.38;;;;;15.80;100313.00;;;;5076474;28;20198;-79
2021/10/31 06:43:09;;;;;;;5.40;3.53;;;;;15.80;100289.00;;;;5075185;28;20197;-79
2021/10/31 06:45:37;;;;;;;4.07;3.53;;;;;15.80;100293.00;;;;5073389;28;20209;-79
2021/10/31 06:48:05;;;;;;;4.00;3.40;;;;;15.80;100291.00;;;;5076089;28;20203;-79
2021/10/31 06:50:33;;;;;;;4.40;3.63;;;;;15.80;100295.00;;;;5082501;28;20209;-80
2021/10/31 06:53:01;;;;;;;5.53;3.50;;;;;15.80;100298.00;;;;5078769;28;20195;-79
2021/10/31 06:55:30;;;;;;;4.55;3.63;;;;;15.80;100291.00;;;;5081234;28;20710;-79
2021/10/31 06:57:57;;;;;;;4.43;3.33;;;;;15.80;100291.00;;;;5070372;28;20195;-79
2021/10/31 07:00:26;;;;;;;4.47;3.47;;;;;15.80;100301.00;;;;5067454;28;20198;-79
2021/10/31 07:02:53;;;;;;;6.68;4.55;;;;;15.80;100292.00;;;;5076812;28;20220;-79
2021/10/31 07:05:21;;;;;;;4.78;3.60;;;;;15.80;100295.00;;;;5075210;28;20578;-79
2021/10/31 07:07:48;;;;;;;6.15;3.97;;;;;15.80;100287.00;;;;5075593;28;20199;-79
2021/10/31 07:10:15;;;;;;;3.83;3.17;;;;;15.80;100285.00;;;;5072803;28;20405;-79
2021/10/31 07:12:44;;;;;;;4.53;3.92;;;;;15.80;100280.00;;;;5078131;28;20195;-79
2021/10/31 07:15:12;;;;;;;5.57;3.42;;;;;15.80;100268.00;;;;5075146;28;20229;-79
2021/10/31 07:17:39;;;;;;;3.88;3.50;;;;;15.90;100266.00;;;;5079090;28;20290;-79
2021/10/31 07:20:07;;;;;;;5.32;3.88;;;;;15.90;100260.00;;;;5078643;27;20206;-78
2021/10/31 07:22:35;;;;;;;5.25;4.10;;;;;15.90;100257.00;;;;5082111;28;20202;-78
2021/10/31 07:25:04;;;;;;;4.55;3.33;;;;;15.90;100257.00;;;;5078209;28;20289;-78
2021/10/31 07:27:31;;;;;;;5.18;3.70;;;;;15.90;100256.00;;;;5079448;28;20533;-77
2021/10/31 07:29:59;;;;;;;4.18;3.17;;;;;15.90;100255.00;;;;5076920;28;20198;-77
2021/10/31 07:32:28;;;;;;;5.05;3.55;;;;;16.00;100250.00;;;;5074670;28;20199;-79
2021/10/31 07:34:55;;;;;;;4.50;3.35;;;;;16.00;100242.00;;;;5078370;28;20260;-79
2021/10/31 07:37:22;;;;;;;4.57;3.58;;;;;16.00;100236.00;;;;5077853;28;20202;-80
2021/10/31 07:39:55;;;;;;;3.17;2.85;;;;;16.10;100239.00;;;;5078758;28;20198;-81
2021/10/31 07:42:28;;;;;;;4.07;3.30;;;;;16.10;100238.00;;;;5080172;28;20196;-79
2021/10/31 07:44:55;;;;;;;4.10;3.22;;;;;16.10;100248.00;;;;5069204;28;20202;-78
2021/10/31 07:47:24;;;;;;;4.47;3.78;;;;;16.10;100245.00;;;;5068359;28;20206;-79
2021/10/31 07:49:52;;;;;;;4.97;3.63;;;;;16.20;100252.00;;;;5068392;28;20199;-79
2021/10/31 07:52:19;;;;;;;5.00;4.22;;;;;16.20;100248.00;;;;5072521;28;20195;-78
2021/10/31 07:54:47;;;;;;;5.00;3.78;;;;;16.20;100256.00;;;;5087516;28;20209;-79
2021/10/31 07:57:14;;;;;;;6.70;4.05;;;;;16.20;100242.00;;;;5088169;28;20218;-79
2021/10/31 07:59:42;;;;;;;4.75;3.85;;;;;16.30;100246.00;;;;5088798;28;20209;-78
2021/10/31 08:02:09;;;;;;;5.25;3.75;;;;;16.30;100242.00;;;;5070491;28;20233;-78
2021/10/31 08:04:38;;;;;;;4.20;3.50;;;;;16.40;100247.00;;;;5070129;28;20194;-79
2021/10/31 08:07:05;;;;;;;4.28;3.45;;;;;16.40;100238.00;;;;5087399;28;20198;-79
2021/10/31 08:09:32;;;;;;;4.65;3.83;;;;;16.50;100234.00;;;;5072136;28;20218;-80
2021/10/31 08:12:00;;;;;;;4.63;3.92;;;;;16.50;100246.00;;;;5079912;28;20202;-79
2021/10/31 08:14:28;;;;;;;4.75;3.83;;;;;16.60;100250.00;;;;5074837;28;20203;-78
2021/10/31 08:16:55;;;;;;;5.47;4.18;;;;;16.60;100249.00;;;;5068366;28;20961;-78
2021/10/31 08:19:24;;;;;;;4.93;4.18;;;;;16.60;100245.00;;;;5087819;28;20208;-79
2021/10/31 08:21:54;;;;;;;4.47;3.88;;;;;16.70;100235.00;;;;5088481;28;20193;-78
2021/10/31 08:24:21;;;;;;;3.67;3.33;;;;;16.70;100234.00;;;;5088851;28;20197;-80
2021/10/31 08:26:49;;;;;;;6.53;4.10;;;;;16.80;100230.00;;;;5075406;28;20209;-80
2021/10/31 08:29:19;;;;;;;5.93;3.90;;;;;16.80;100224.00;;;;5067809;28;20194;-80
2021/10/31 08:31:49;;;;;;;5.07;3.70;;;;;16.90;100221.00;;;;5068828;28;20191;-81
2021/10/31 08:34:17;;;;;;;5.90;4.40;;;;;16.90;100206.00;;;;5078141;28;20253;-80
2021/10/31 08:36:44;;;;;;;3.80;3.45;;;;;17.00;100191.00;;;;5071718;28;20222;-82
2021/10/31 08:39:12;;;;;;;7.07;4.28;;;;;17.00;100184.00;;;;5074662;28;20199;-80
2021/10/31 08:41:42;;;;;;;4.53;3.65;;;;;17.10;100176.00;;;;5067667;28;20210;-79
2021/10/31 08:44:11;;;;;;;4.60;3.63;;;;;17.10;100175.00;;;;5067584;28;20195;-80
2021/10/31 08:46:39;;;;;;;4.68;3.63;;;;;17.20;100180.00;;;;5067707;28;20187;-80
2021/10/31 08:49:06;;;;;;;5.90;3.60;;;;;17.20;100185.00;;;;5070855;28;20671;-79
2021/10/31 08:51:33;;;;;;;4.00;3.45;;;;;17.20;100181.00;;;;5069026;28;20230;-80
2021/10/31 08:54:01;;;;;;;5.13;3.75;;;;;17.30;100173.00;;;;5072394;28;20202;-80
2021/10/31 08:56:31;;;;;;;3.67;3.05;;;;;17.30;100170.00;;;;5076032;28;20222;-80
2021/10/31 08:58:59;;;;;;;5.90;3.60;;;;;17.40;100179.00;;;;5088087;28;20202;-79
2021/10/31 09:01:26;;;;;;;3.90;3.25;;;;;17.40;100155.00;;;;5080203;28;20194;-78
2021/10/31 09:03:53;;;;;;;3.38;3.00;;;;;17.50;100148.00;;;;5078160;28;20202;-80
2021/10/31 09:06:23;;;;;;;5.40;3.40;;;;;17.60;100144.00;;;;5068512;28;20652;-80
2021/10/31 09:08:50;;;;;;;3.75;2.88;;;;;17.60;100136.00;;;;5070727;28;20219;-79
2021/10/31 09:11:17;;;;;;;3.13;2.40;;;;;17.70;100132.00;;;;5080681;28;20206;-79
2021/10/31 09:13:47;;;;;;;3.65;2.58;;;;;17.70;100140.00;;;;5073975;28;20205;-78
2021/10/31 09:16:14;;;;;;;3.17;2.88;;;;;17.80;100138.00;;;;5070365;28;20234;-80
2021/10/31 09:18:42;;;;;;;3.60;2.75;;;;;17.90;100130.00;;;;5068376;28;20206;-79
2021/10/31 09:21:10;;;;;;;3.70;2.78;;;;;17.90;100122.00;;;;5067357;28;20320;-80
2021/10/31 09:23:38;;;;;;;4.35;2.80;;;;;18.00;100132.00;;;;5069848;28;20680;-79
2021/10/31 09:26:05;;;;;;;2.47;2.28;;;;;18.00;100123.00;;;;5071481;28;20669;-81
2021/10/31 09:28:33;;;;;;;2.42;2.20;;;;;18.10;100129.00;;;;5074842;28;20240;-82
2021/10/31 09:31:01;;;;;;;3.60;2.80;;;;;18.10;100115.00;;;;5085943;28;20221;-79
2021/10/31 09:33:29;;;;;;;2.38;2.17;;;;;18.20;100117.00;;;;5065721;28;20241;-80
2021/10/31 09:35:58;;;;;;;3.03;2.33;;;;;18.30;100118.00;;;;5070271;28;20211;-78
2021/10/31 09:38:27;;;;;;;2.60;2.15;;;;;18.30;100117.00;;;;5079979;28;20194;-79
2021/10/31 09:40:55;;;;;;;2.75;2.45;;;;;18.40;100117.00;;;;5075400;28;20206;-80
2021/10/31 09:43:24;;;;;;;2.60;2.40;;;;;18.50;100104.00;;;;5082777;28;20206;-81
2021/10/31 09:45:51;;;;;;;3.00;2.40;;;;;18.50;100106.00;;;;5091669;28;20198;-79
2021/10/31 09:48:20;;;;;;;2.72;2.13;;;;;18.60;100107.00;;;;5091357;28;20209;-81
2021/10/31 09:50:50;;;;;;;3.42;2.38;;;;;18.70;100106.00;;;;5091145;28;20209;-80
2021/10/31 09:53:20;;;;;;;2.47;2.17;;;;;18.80;100100.00;;;;5091484;28;20601;-80
2021/10/31 09:55:48;;;;;;;3.83;2.13;;;;;18.80;100094.00;;;;5090836;28;20199;-80
2021/10/31 09:58:20;;;;;;;2.13;1.98;;;;;18.90;100087.00;;;;5091045;28;20213;-80
2021/10/31 10:00:50;;;;;;;3.17;2.20;;;;;18.90;100090.00;;;;5090230;28;20282;-78
2021/10/31 10:03:25;;;;;;;2.35;1.92;;;;;19.00;100088.00;;;;5091416;28;20190;-80
2021/10/31 10:06:18;;;;;;;3.72;2.45;;;;;19.00;100056.00;;;;5081357;28;20715;-80
2021/10/31 10:09:01;;;;;;;4.10;1.83;;;;;19.10;100059.00;;;;5070187;28;20697;-79
2021/10/31 10:11:30;;;;;;;1.95;1.80;;;;;19.30;100066.00;;;;5069841;28;20277;-80
2021/10/31 10:14:09;;;;;;;2.38;1.95;;;;;19.30;100056.00;;;;5085133;28;20198;-80
2021/10/31 10:16:37;;;;;;;1.50;1.33;;;;;19.40;100046.00;;;;5084924;28;20231;-81
2021/10/31 10:19:18;;;;;;;2.72;1.63;;;;;19.40;100030.00;;;;5070389;28;20206;-79
2021/10/31 10:21:53;;;;;;;2.15;1.90;;;;;19.50;100030.00;;;;5081363;28;20198;-80
2021/10/31 10:24:22;;;;;;;1.70;1.60;;;;;19.60;100021.00;;;;5070871;28;20194;-80
2021/10/31 10:26:51;;;;;;;1.80;1.55;;;;;19.70;100014.00;;;;5070024;28;20233;-79
2021/10/31 10:29:22;;;;;;;3.15;1.92;;;;;19.70;100014.00;;;;5070021;28;20230;-80
2021/10/31 10:31:53;;;;;;;2.38;1.50;;;;;19.80;100009.00;;;;5070708;28;20199;-80
2021/10/31 10:34:34;;;;;;;2.65;1.63;;;;;19.80;100004.00;;;;5071382;28;20206;-80
2021/10/31 10:37:07;;;;;;;1.52;1.30;;;;;19.80;99987.00;;;;5069973;28;20566;-80
2021/10/31 10:39:36;;;;;;;1.10;1.00;;;;;19.90;99984.00;;;;5078178;28;20233;-80
2021/10/31 10:42:04;;;;;;;1.48;1.35;;;;;19.90;99981.00;;;;5090263;28;20202;-79
2021/10/31 10:44:33;;;;;;;1.55;1.17;;;;;20.00;99986.00;;;;5090580;28;20195;-79
2021/10/31 10:47:04;;;;;;;1.50;1.00;;;;;20.00;99982.00;;;;5090050;28;20206;-80
2021/10/31 10:49:35;;;;;;;1.27;0.85;;;;;20.00;99971.00;;;;5089961;28;20202;-80
2021/10/31 10:52:19;;;;;;;1.30;0.98;;;;;20.00;99958.00;;;;5072611;28;20603;-80
2021/10/31 10:55:12;;;;;;;1.10;1.00;;;;;19.90;99953.00;;;;5069774;28;20660;-79
2021/10/31 10:57:41;;;;;;;1.38;0.93;;;;;20.00;99961.00;;;;5067184;28;20648;-80
2021/10/31 11:00:12;;;;;;;1.05;0.85;;;;;20.00;99961.00;;;;5069506;28;20668;-80
2021/10/31 11:02:40;;;;;;;1.17;0.85;;;;;20.10;99953.00;;;;5070212;28;20603;-80
2021/10/31 11:05:11;;;;;;;2.28;1.20;;;;;20.10;99947.00;;;;5069517;28;20664;-81
2021/10/31 11:07:42;;;;;;;1.67;1.10;;;;;20.10;99947.00;;;;5074720;28;20755;-80
2021/10/31 11:10:18;;;;;;;1.05;0.82;;;;;20.00;99944.00;;;;5089953;28;20218;-80
2021/10/31 11:12:47;;;;;;;2.00;1.13;;;;;20.10;99946.00;;;;5089840;28;20702;-80
2021/10/31 11:15:17;;;;;;;1.08;0.93;;;;;20.10;99933.00;;;;5089563;28;21035;-80
2021/10/31 11:17:47;;;;;;;1.42;1.27;;;;;20.10;99932.00;;;;5089555;28;20594;-80
2021/10/31 11:20:18;;;;;;;1.60;1.20;;;;;20.00;99926.00;;;;5089029;28;20751;-80
2021/10/31 11:22:48;;;;;;;2.13;1.50;;;;;20.10;99914.00;;;;5089626;28;20202;-80
2021/10/31 11:25:17;;;;;;;1.30;1.20;;;;;20.10;99910.00;;;;5078850;28;20203;-80
2021/10/31 11:27:46;;;;;;;1.58;1.20;;;;;20.10;99900.00;;;;5079955;28;20233;-80
2021/10/31 11:30:15;;;;;;;2.83;1.23;;;;;20.10;99882.00;;;;5070196;28;20206;-80
2021/10/31 11:32:43;;;;;;;2.40;1.65;;;;;20.00;99871.00;;;;5076429;28;20191;-79
2021/10/31 11:35:12;;;;;;;1.95;1.35;;;;;20.00;99866.00;;;;5081477;28;20657;-80
2021/10/31 11:37:45;;;;;;;1.40;1.23;;;;;20.00;99864.00;;;;5069915;28;20233;-80
2021/10/31 11:40:13;;;;;;;1.20;1.00;;;;;20.00;99863.00;;;;5069581;28;20195;-79
2021/10/31 11:42:44;;;;;;;1.15;1.05;;;;;20.00;99865.00;;;;5075406;28;20203;-80
2021/10/31 11:45:17;;;;;;;2.20;1.02;;;;;20.00;99858.00;;;;5070193;28;20223;-80
2021/10/31 11:47:47;;;;;;;1.30;1.20;;;;;20.00;99849.00;;;;5069795;28;20198;-80
2021/10/31 11:50:18;;;;;;;1.85;1.20;;;;;19.90;99840.00;;;;5069055;28;20209;-80
2021/10/31 11:52:52;;;;;;;1.40;1.00;;;;;19.90;99828.00;;;;5069688;28;20199;-80
2021/10/31 11:55:50;;;;;;;1.50;0.90;;;;;19.80;99841.00;;;;5069163;28;20206;-81
2021/10/31 11:58:57;;;;;;;1.50;1.05;;;;;19.80;99845.00;;;;5059479;28;20748;-80
2021/10/31 12:01:38;;;;;;;1.02;0.80;;;;;19.80;99837.00;;;;5089414;28;20225;-80
2021/10/31 12:04:09;;;;;;;3.85;1.00;;;;;19.90;99828.00;;;;5089356;28;20230;-80
2021/10/31 12:06:41;;;;;;;2.72;0.77;;;;;19.90;99825.00;;;;5089428;28;20209;-80
2021/10/31 12:09:34;;;;;;;1.00;0.85;;;;;19.80;99810.00;;;;5088935;28;20210;-80
2021/10/31 12:12:15;;;;;;;1.08;0.77;;;;;19.80;99797.00;;;;5088942;28;20194;-80
2021/10/31 12:14:52;;;;;;;1.90;1.02;;;;;19.90;99788.00;;;;5089643;28;20247;-81
2021/10/31 12:17:21;;;;;;;0.93;0.77;;;;;19.90;99778.00;;;;5069279;28;20222;-80
2021/10/31 12:19:49;;;;;;;0.93;0.82;;;;;20.00;99780.00;;;;5068915;28;20215;-80
2021/10/31 12:22:19;;;;;;;1.23;0.85;;;;;20.00;99768.00;;;;5068600;28;20579;-80